Time;durP1;ratioP1;P1;durP2;ratioP2;P2;SDS_P1;SDS_P2;PMS_P1;PMS_P2;Temp;Humidity;BMP_temperature;BMP_pressure;BME280_temperature;BME280_humidity;BME280_pressure;Samples;Min_cycle;Max_cycle;Signal;HPM_P1;HPM_P2
2023/07/11 00:01:13;;;;;;;211.05;190.15;;;;;;;;;;5036923;28;20447;-65
2023/07/11 00:03:40;;;;;;;;;;;;;;;;;;5037483;28;20500;-66
2023/07/11 00:06:08;;;;;;;45.92;28.52;;;;;;;;;;5036662;28;19990;-67
2023/07/11 00:08:36;;;;;;;61.95;44.25;;;;;;;;;;5036612;28;20498;-66
2023/07/11 00:11:04;;;;;;;178.52;155.30;;;;;;;;;;5036633;28;20364;-67
2023/07/11 00:13:32;;;;;;;133.20;120.30;;;;;;;;;;5036387;28;20025;-67
2023/07/11 00:16:01;;;;;;;32.35;17.50;;;;;;;;;;5045566;28;20474;-68
2023/07/11 00:18:28;;;;;;;86.00;78.07;;;;;;;;;;5056832;28;20037;-68
2023/07/11 00:20:55;;;;;;;155.52;140.18;;;;;;;;;;5056006;28;20017;-67
2023/07/11 00:23:22;;;;;;;62.63;56.35;;;;;;;;;;5048605;28;20064;-68
2023/07/11 00:25:49;;;;;;;24.45;14.77;;;;;;;;;;5052257;28;20037;-68
2023/07/11 00:28:15;;;;;;;29.98;13.93;;;;;;;;;;5037975;28;20052;-67
2023/07/11 00:30:42;;;;;;;98.53;90.30;;;;;;;;;;5055863;28;20025;-67
2023/07/11 00:33:09;;;;;;;821.38;742.08;;;;;;;;;;5055978;28;20024;-67
2023/07/11 00:35:36;;;;;;;957.00;864.03;;;;;;;;;;5055874;28;20025;-66
2023/07/11 00:38:02;;;;;;;827.10;746.75;;;;;;;;;;5055881;28;20032;-65
2023/07/11 00:40:29;;;;;;;1240.68;999.90;;;;;;;;;;5056275;28;20075;-66
2023/07/11 00:42:56;;;;;;;950.42;859.25;;;;;;;;;;5056298;28;20115;-66
2023/07/11 00:45:43;;;;;;;948.00;857.83;;;;;;;;;;5050095;28;20036;-67
2023/07/11 00:48:09;;;;;;;1301.82;999.90;;;;;;;;;;5055761;28;20028;-68
2023/07/11 00:50:36;;;;;;;1480.80;999.90;;;;;;;;;;5039988;28;20107;-66
2023/07/11 00:53:02;;;;;;;930.55;840.85;;;;;;;;;;5036013;28;20037;-66
2023/07/11 00:55:29;;;;;;;1504.25;999.90;;;;;;;;;;5035569;28;20028;-67
2023/07/11 00:57:56;;;;;;;640.60;574.33;;;;;;;;;;5035677;28;20025;-66
2023/07/11 01:00:23;;;;;;;988.92;890.17;;;;;;;;;;5035757;28;20032;-66
2023/07/11 01:02:49;;;;;;;1408.28;999.90;;;;;;;;;;5035433;28;20029;-67
2023/07/11 01:05:16;;;;;;;1286.85;999.90;;;;;;;;;;5035530;28;20033;-66
2023/07/11 01:07:42;;;;;;;1303.10;999.90;;;;;;;;;;5035691;28;20021;-66
2023/07/11 01:10:09;;;;;;;635.20;532.60;;;;;;;;;;5035233;28;20021;-66
2023/07/11 01:12:36;;;;;;;661.97;594.15;;;;;;;;;;5035808;28;20025;-67
2023/07/11 01:15:04;;;;;;;1516.35;999.90;;;;;;;;;;5035079;28;20021;-66
2023/07/11 01:17:32;;;;;;;1496.60;999.90;;;;;;;;;;5035390;28;20421;-64
2023/07/11 01:20:00;;;;;;;1403.05;999.90;;;;;;;;;;5035306;28;20026;-66
2023/07/11 01:22:28;;;;;;;1373.03;999.90;;;;;;;;;;5035053;28;20021;-66
2023/07/11 01:24:56;;;;;;;792.85;713.55;;;;;;;;;;5034714;28;20049;-65
2023/07/11 01:27:23;;;;;;;1229.70;999.90;;;;;;;;;;5034882;28;20032;-66
2023/07/11 01:29:50;;;;;;;1181.35;999.90;;;;;;;;;;5034820;28;20018;-66
2023/07/11 01:32:17;;;;;;;1534.05;999.90;;;;;;;;;;5034713;28;20483;-65
2023/07/11 01:34:44;;;;;;;1253.10;999.90;;;;;;;;;;5034702;28;20084;-66
2023/07/11 01:37:11;;;;;;;1234.47;999.90;;;;;;;;;;5034661;28;20029;-66
2023/07/11 01:39:37;;;;;;;511.00;459.17;;;;;;;;;;5037073;28;20029;-66
2023/07/11 01:42:04;;;;;;;1073.72;968.05;;;;;;;;;;5045457;28;20017;-66
2023/07/11 01:44:31;;;;;;;1339.35;999.90;;;;;;;;;;5054342;28;20120;-66
2023/07/11 01:46:58;;;;;;;1343.32;999.90;;;;;;;;;;5054309;28;20029;-66
2023/07/11 01:49:25;;;;;;;1423.45;999.90;;;;;;;;;;5054516;28;20025;-66
2023/07/11 01:52:02;;;;;;;1069.75;965.17;;;;;;;;;;5046999;28;20021;-66
2023/07/11 01:54:28;;;;;;;401.50;359.83;;;;;;;;;;5034206;28;20076;-66
2023/07/11 01:56:55;;;;;;;482.77;432.45;;;;;;;;;;5034288;28;20030;-66
2023/07/11 01:59:21;;;;;;;976.42;879.28;;;;;;;;;;5034331;28;20025;-66
2023/07/11 02:01:48;;;;;;;911.53;820.35;;;;;;;;;;5033515;28;20418;-66
2023/07/11 02:04:21;;;;;;;590.28;531.42;;;;;;;;;;5034097;28;20029;-66
2023/07/11 02:06:48;;;;;;;178.48;159.45;;;;;;;;;;5033988;28;20033;-66
2023/07/11 02:09:14;;;;;;;256.10;229.38;;;;;;;;;;5034266;28;20031;-66
2023/07/11 02:11:41;;;;;;;26.42;18.95;;;;;;;;;;5034126;28;20355;-67
2023/07/11 02:14:08;;;;;;;437.73;391.85;;;;;;;;;;5034051;28;20022;-66
2023/07/11 02:16:34;;;;;;;20.17;11.52;;;;;;;;;;5033858;28;20057;-66
2023/07/11 02:19:01;;;;;;;1485.10;999.90;;;;;;;;;;5034034;28;20033;-66
2023/07/11 02:21:27;;;;;;;1517.97;999.90;;;;;;;;;;5034003;28;20032;-66
2023/07/11 02:23:54;;;;;;;1569.13;999.90;;;;;;;;;;5033765;28;20100;-66
2023/07/11 02:26:21;;;;;;;1160.78;999.90;;;;;;;;;;5033720;28;20025;-66
2023/07/11 02:28:47;;;;;;;675.13;609.97;;;;;;;;;;5033673;28;20093;-66
2023/07/11 02:31:14;;;;;;;1303.43;999.90;;;;;;;;;;5033664;28;20021;-66
2023/07/11 02:33:41;;;;;;;1276.32;999.90;;;;;;;;;;5033798;28;20032;-67
2023/07/11 02:36:07;;;;;;;1340.03;999.90;;;;;;;;;;5033600;28;20386;-65
2023/07/11 02:38:34;;;;;;;1151.88;999.90;;;;;;;;;;5033537;28;20021;-65
2023/07/11 02:41:01;;;;;;;699.40;634.63;;;;;;;;;;5033683;28;20100;-66
2023/07/11 02:43:27;;;;;;;867.00;784.42;;;;;;;;;;5033420;28;20052;-67
2023/07/11 02:45:55;;;;;;;1509.80;999.90;;;;;;;;;;5033444;28;20025;-65
2023/07/11 02:48:21;;;;;;;1476.97;999.90;;;;;;;;;;5033480;28;20088;-67
2023/07/11 02:50:48;;;;;;;1504.75;999.90;;;;;;;;;;5037680;28;20332;-65
2023/07/11 02:53:15;;;;;;;1488.30;999.90;;;;;;;;;;5053613;28;20063;-64
2023/07/11 02:55:41;;;;;;;205.95;133.68;;;;;;;;;;5053412;28;20036;-66
2023/07/11 02:58:08;;;;;;;76.25;42.38;;;;;;;;;;5053471;28;20470;-67
2023/07/11 03:00:35;;;;;;;124.95;84.80;;;;;;;;;;5053476;28;20033;-66
2023/07/11 03:03:02;;;;;;;68.30;39.17;;;;;;;;;;5053148;28;20025;-66
2023/07/11 03:05:29;;;;;;;62.25;36.42;;;;;;;;;;5053275;28;20082;-67
2023/07/11 03:07:56;;;;;;;65.82;39.28;;;;;;;;;;5053775;28;20450;-65
2023/07/11 03:10:22;;;;;;;71.45;45.97;;;;;;;;;;5052929;28;20036;-67
2023/07/11 03:12:49;;;;;;;70.35;46.78;;;;;;;;;;5053305;28;20029;-67
2023/07/11 03:15:15;;;;;;;80.18;48.35;;;;;;;;;;5057478;28;20095;-69
2023/07/11 03:17:42;;;;;;;72.03;49.72;;;;;;;;;;5057414;28;20462;-66
2023/07/11 03:20:09;;;;;;;69.68;46.50;;;;;;;;;;5057751;28;20100;-66
2023/07/11 03:22:35;;;;;;;370.67;334.17;;;;;;;;;;5046995;28;20032;-66
2023/07/11 03:25:02;;;;;;;1128.47;987.45;;;;;;;;;;5058061;28;20037;-66
2023/07/11 03:27:29;;;;;;;1205.30;999.90;;;;;;;;;;5057649;28;20033;-66
2023/07/11 03:29:55;;;;;;;1323.20;999.90;;;;;;;;;;5050455;28;20025;-65
2023/07/11 03:32:22;;;;;;;1401.75;999.90;;;;;;;;;;5052892;28;20043;-66
2023/07/11 03:34:49;;;;;;;1489.65;999.90;;;;;;;;;;5056018;28;20466;-66
2023/07/11 03:37:15;;;;;;;41.70;31.70;;;;;;;;;;5057445;28;20029;-67
2023/07/11 03:39:42;;;;;;;29.58;17.85;;;;;;;;;;5056835;28;20052;-67
2023/07/11 03:42:09;;;;;;;16.50;9.13;;;;;;;;;;5057046;28;20058;-67
2023/07/11 03:44:35;;;;;;;19.17;8.43;;;;;;;;;;5056781;28;20413;-66
2023/07/11 03:47:02;;;;;;;106.00;71.80;;;;;;;;;;5056584;28;20017;-65
2023/07/11 03:49:29;;;;;;;151.43;110.15;;;;;;;;;;5056819;28;20386;-69
2023/07/11 03:51:55;;;;;;;34.80;25.88;;;;;;;;;;5056810;28;20028;-65
2023/07/11 03:54:23;;;;;;;14.93;7.47;;;;;;;;;;5056777;28;20017;-65
2023/07/11 03:56:52;;;;;;;10.48;7.43;;;;;;;;;;5057358;28;20523;-65
2023/07/11 03:59:19;;;;;;;11.10;6.45;;;;;;;;;;5056893;28;20029;-65
2023/07/11 04:01:45;;;;;;;11.82;6.57;;;;;;;;;;5056311;28;20021;-66
2023/07/11 04:04:12;;;;;;;12.57;7.60;;;;;;;;;;5056272;28;20508;-65
2023/07/11 04:06:39;;;;;;;14.75;7.60;;;;;;;;;;5056123;28;20418;-65
2023/07/11 04:09:06;;;;;;;10.90;8.30;;;;;;;;;;5056064;28;20527;-65
2023/07/11 04:11:33;;;;;;;10.82;8.50;;;;;;;;;;5056318;28;20087;-65
2023/07/11 04:13:59;;;;;;;8.40;6.03;;;;;;;;;;5056405;28;20533;-65
2023/07/11 04:16:26;;;;;;;11.38;6.97;;;;;;;;;;5055979;28;20036;-65
2023/07/11 04:18:52;;;;;;;11.48;6.55;;;;;;;;;;5052341;28;20032;-65
2023/07/11 04:21:19;;;;;;;13.88;7.38;;;;;;;;;;5045270;28;20033;-66
2023/07/11 04:23:47;;;;;;;10.77;6.85;;;;;;;;;;5036128;28;20461;-65
2023/07/11 04:26:14;;;;;;;12.52;6.90;;;;;;;;;;5034907;28;20063;-65
2023/07/11 04:28:40;;;;;;;10.43;7.50;;;;;;;;;;5036052;28;20026;-64
2023/07/11 04:31:07;;;;;;;17.08;8.88;;;;;;;;;;5043527;28;20539;-65
2023/07/11 04:33:34;;;;;;;13.52;8.15;;;;;;;;;;5055320;28;20025;-66
2023/07/11 04:36:20;;;;;;;11.43;6.85;;;;;;;;;;5052628;28;20429;-66
2023/07/11 04:38:47;;;;;;;11.98;6.50;;;;;;;;;;5052384;28;20428;-66
2023/07/11 04:41:13;;;;;;;15.45;7.40;;;;;;;;;;5055141;28;20025;-66
2023/07/11 04:43:40;;;;;;;19.50;10.13;;;;;;;;;;5055214;28;20053;-65
2023/07/11 04:46:07;;;;;;;11.18;8.15;;;;;;;;;;5055173;28;20025;-66
2023/07/11 04:48:34;;;;;;;24.73;7.53;;;;;;;;;;5054564;28;20024;-66
2023/07/11 04:51:03;;;;;;;14.65;8.50;;;;;;;;;;5054863;28;20013;-66
2023/07/11 04:53:30;;;;;;;10.60;7.30;;;;;;;;;;5054857;28;20597;-66
2023/07/11 04:55:57;;;;;;;15.25;7.40;;;;;;;;;;5055042;28;20033;-66
2023/07/11 04:58:25;;;;;;;11.15;7.47;;;;;;;;;;5055123;28;20025;-66
2023/07/11 05:00:51;;;;;;;14.48;7.72;;;;;;;;;;5054969;28;20021;-66
2023/07/11 05:03:18;;;;;;;11.48;6.07;;;;;;;;;;5049206;28;20040;-67
2023/07/11 05:05:45;;;;;;;10.93;6.53;;;;;;;;;;5040116;28;20018;-65
2023/07/11 05:08:11;;;;;;;9.85;5.40;;;;;;;;;;5035164;28;20026;-65
2023/07/11 05:10:38;;;;;;;10.02;5.70;;;;;;;;;;5035426;28;20422;-66
2023/07/11 05:13:04;;;;;;;9.02;5.90;;;;;;;;;;5035209;28;20021;-66
2023/07/11 05:15:31;;;;;;;10.95;6.13;;;;;;;;;;5035184;28;20529;-66
2023/07/11 05:17:58;;;;;;;7.32;4.40;;;;;;;;;;5035292;28;20108;-66
2023/07/11 05:20:24;;;;;;;8.38;5.63;;;;;;;;;;5035099;28;20025;-66
2023/07/11 05:22:51;;;;;;;9.82;5.68;;;;;;;;;;5035610;28;20053;-64
2023/07/11 05:25:17;;;;;;;9.13;5.28;;;;;;;;;;5035588;28;20064;-65
2023/07/11 05:27:44;;;;;;;9.55;5.40;;;;;;;;;;5035779;28;20025;-66
2023/07/11 05:30:12;;;;;;;7.15;5.38;;;;;;;;;;5034794;28;20045;-67
2023/07/11 05:32:39;;;;;;;11.10;6.03;;;;;;;;;;5034960;28;20117;-66
2023/07/11 05:35:05;;;;;;;11.77;6.47;;;;;;;;;;5034884;28;20033;-66
2023/07/11 05:37:32;;;;;;;12.43;7.80;;;;;;;;;;5034354;28;20026;-65
2023/07/11 05:39:59;;;;;;;12.25;7.00;;;;;;;;;;5034850;28;20025;-66
2023/07/11 05:42:25;;;;;;;11.30;6.97;;;;;;;;;;5034468;28;20087;-66
2023/07/11 05:44:54;;;;;;;15.98;6.68;;;;;;;;;;5034175;28;20060;-65
2023/07/11 05:47:21;;;;;;;10.85;6.63;;;;;;;;;;5034698;28;20037;-65
2023/07/11 05:49:48;;;;;;;6.95;5.15;;;;;;;;;;5034413;28;20041;-66
2023/07/11 05:52:14;;;;;;;5.55;3.55;;;;;;;;;;5034312;28;20030;-66
2023/07/11 05:54:41;;;;;;;8.77;3.97;;;;;;;;;;5034430;28;20021;-66
2023/07/11 05:57:08;;;;;;;7.75;3.78;;;;;;;;;;5034269;28;20448;-66
2023/07/11 05:59:34;;;;;;;7.88;3.95;;;;;;;;;;5034074;28;20032;-65
2023/07/11 06:02:01;;;;;;;13.52;3.72;;;;;;;;;;5034287;28;20029;-66
2023/07/11 06:04:28;;;;;;;15.68;3.60;;;;;;;;;;5034089;28;20072;-65
2023/07/11 06:06:54;;;;;;;8.63;3.22;;;;;;;;;;5033946;28;20025;-65
2023/07/11 06:09:21;;;;;;;5.00;2.78;;;;;;;;;;5034225;28;20052;-65
2023/07/11 06:11:49;;;;;;;7.68;3.40;;;;;;;;;;5034368;28;20100;-66
2023/07/11 06:14:17;;;;;;;5.97;3.17;;;;;;;;;;5034172;28;20104;-66
2023/07/11 06:16:43;;;;;;;5.78;3.75;;;;;;;;;;5034279;28;20025;-66
2023/07/11 06:19:10;;;;;;;6.40;3.42;;;;;;;;;;5034081;28;20034;-65
2023/07/11 06:21:37;;;;;;;8.98;3.20;;;;;;;;;;5034302;28;20033;-66
2023/07/11 06:24:03;;;;;;;10.15;4.68;;;;;;;;;;5034174;28;20028;-66
2023/07/11 06:26:30;;;;;;;6.70;3.20;;;;;;;;;;5034376;28;20036;-66
2023/07/11 06:28:57;;;;;;;6.57;2.97;;;;;;;;;;5034206;28;20034;-66
2023/07/11 06:31:23;;;;;;;6.53;3.03;;;;;;;;;;5034182;28;20104;-66
2023/07/11 06:33:50;;;;;;;4.30;3.45;;;;;;;;;;5034421;28;20033;-66
2023/07/11 06:36:17;;;;;;;7.13;3.13;;;;;;;;;;5034215;28;20105;-65
2023/07/11 06:38:44;;;;;;;6.10;2.60;;;;;;;;;;5034562;28;20080;-65
2023/07/11 06:41:10;;;;;;;5.22;3.15;;;;;;;;;;5034188;28;20471;-65
2023/07/11 06:43:37;;;;;;;3.72;3.03;;;;;;;;;;5034006;28;20076;-65
2023/07/11 06:46:03;;;;;;;5.95;2.95;;;;;;;;;;5051793;28;20029;-65
2023/07/11 06:48:31;;;;;;;6.03;2.92;;;;;;;;;;5053670;28;20016;-65
2023/07/11 06:50:59;;;;;;;4.63;3.08;;;;;;;;;;5051580;28;20576;-65
2023/07/11 06:53:27;;;;;;;4.57;2.78;;;;;;;;;;5053108;28;20056;-65
2023/07/11 06:55:54;;;;;;;10.20;3.38;;;;;;;;;;5053368;28;20017;-65
2023/07/11 06:58:21;;;;;;;6.38;3.13;;;;;;;;;;5053289;28;20025;-65
2023/07/11 07:00:58;;;;;;;4.78;2.95;;;;;;;;;;5053170;28;20024;-65
2023/07/11 07:03:25;;;;;;;10.80;3.78;;;;;;;;;;5051568;28;20067;-65
2023/07/11 07:05:54;;;;;;;5.10;2.85;;;;;;;;;;5052479;28;20059;-64
2023/07/11 07:08:21;;;;;;;13.75;2.70;;;;;;;;;;5052571;28;20044;-65
2023/07/11 07:10:48;;;;;;;4.32;2.70;;;;;;;;;;5052664;28;20017;-65
2023/07/11 07:13:15;;;;;;;6.30;2.65;;;;;;;;;;5051063;28;20021;-65
2023/07/11 07:15:42;;;;;;;6.50;3.85;;;;;;;;;;5053480;28;20104;-65
2023/07/11 07:18:09;;;;;;;6.25;3.83;;;;;;;;;;5053230;28;20520;-65
2023/07/11 07:20:36;;;;;;;5.50;3.63;;;;;;;;;;5051658;28;20036;-64
2023/07/11 07:23:04;;;;;;;10.73;6.85;;;;;;;;;;5051432;28;20108;-66
2023/07/11 07:25:31;;;;;;;9.52;7.95;;;;;;;;;;5052266;28;20072;-65
2023/07/11 07:27:58;;;;;;;10.55;6.40;;;;;;;;;;5050155;28;20041;-64
2023/07/11 07:30:24;;;;;;;9.77;6.07;;;;;;;;;;5051927;28;20198;-65
2023/07/11 07:32:51;;;;;;;10.52;6.72;;;;;;;;;;5051342;28;20059;-66
2023/07/11 07:35:17;;;;;;;7.80;5.60;;;;;;;;;;5049368;28;20060;-64
2023/07/11 07:37:44;;;;;;;7.82;5.65;;;;;;;;;;5051332;28;20052;-65
2023/07/11 07:40:11;;;;;;;8.20;4.78;;;;;;;;;;5051092;28;20095;-65
2023/07/11 07:42:37;;;;;;;4.63;3.20;;;;;;;;;;5048282;28;20021;-66
2023/07/11 07:45:04;;;;;;;6.30;2.88;;;;;;;;;;5051957;28;20021;-67
2023/07/11 07:47:31;;;;;;;5.45;3.72;;;;;;;;;;5052139;28;20035;-67
2023/07/11 07:49:58;;;;;;;9.30;4.20;;;;;;;;;;5047472;28;20025;-66
2023/07/11 07:52:24;;;;;;;3.75;3.30;;;;;;;;;;5052267;28;20029;-66
2023/07/11 07:54:51;;;;;;;8.23;3.55;;;;;;;;;;5051447;28;20071;-65
2023/07/11 07:57:17;;;;;;;8.40;3.92;;;;;;;;;;5050212;28;20044;-65
2023/07/11 07:59:44;;;;;;;9.25;4.43;;;;;;;;;;5053559;28;20013;-65
2023/07/11 08:02:11;;;;;;;7.85;3.65;;;;;;;;;;5055526;28;20032;-67
2023/07/11 08:04:38;;;;;;;7.72;2.83;;;;;;;;;;5053019;28;20032;-66
2023/07/11 08:07:04;;;;;;;3.58;2.67;;;;;;;;;;5055171;28;20109;-66
2023/07/11 08:09:34;;;;;;;5.85;2.67;;;;;;;;;;5055291;28;20036;-65
2023/07/11 08:12:09;;;;;;;5.78;2.67;;;;;;;;;;5052620;28;20349;-65
2023/07/11 08:14:39;;;;;;;6.13;3.83;;;;;;;;;;5054219;28;20020;-66
2023/07/11 08:17:06;;;;;;;8.57;4.55;;;;;;;;;;5054279;28;20031;-65
2023/07/11 08:19:32;;;;;;;7.38;4.28;;;;;;;;;;5053785;28;20040;-65
2023/07/11 08:21:59;;;;;;;9.55;4.60;;;;;;;;;;5049826;28;20376;-66
2023/07/11 08:24:26;;;;;;;6.75;3.88;;;;;;;;;;5054159;28;20033;-67
2023/07/11 08:26:53;;;;;;;8.95;3.75;;;;;;;;;;5053543;28;20045;-66
2023/07/11 08:29:19;;;;;;;10.93;4.80;;;;;;;;;;5052496;28;20047;-66
2023/07/11 08:31:46;;;;;;;9.43;5.40;;;;;;;;;;5051029;28;20043;-67
2023/07/11 08:34:13;;;;;;;6.25;3.70;;;;;;;;;;5049492;28;20025;-64
2023/07/11 08:36:39;;;;;;;8.98;4.65;;;;;;;;;;5049194;28;20041;-65
2023/07/11 08:39:06;;;;;;;6.45;4.15;;;;;;;;;;5044398;28;20026;-65
2023/07/11 08:41:53;;;;;;;11.13;4.35;;;;;;;;;;5035725;28;20424;-64
2023/07/11 08:44:39;;;;;;;9.00;4.82;;;;;;;;;;5035512;28;20457;-67
2023/07/11 08:47:11;;;;;;;9.27;4.88;;;;;;;;;;5035479;28;20432;-65
2023/07/11 08:49:43;;;;;;;8.93;4.40;;;;;;;;;;5048113;28;20398;-67
2023/07/11 08:52:10;;;;;;;15.27;5.60;;;;;;;;;;5055440;28;20466;-66
2023/07/11 08:54:41;;;;;;;10.85;5.43;;;;;;;;;;5055539;28;20549;-66
2023/07/11 08:57:10;;;;;;;13.43;6.90;;;;;;;;;;5055195;28;20033;-66
2023/07/11 08:59:40;;;;;;;15.32;6.90;;;;;;;;;;5055376;28;20473;-67
2023/07/11 09:02:07;;;;;;;19.23;7.60;;;;;;;;;;5050950;28;20028;-71
2023/07/11 09:04:34;;;;;;;10.40;5.72;;;;;;;;;;5044146;28;20386;-68
2023/07/11 09:07:04;;;;;;;13.82;5.70;;;;;;;;;;5034301;28;20034;-65
2023/07/11 09:09:32;;;;;;;12.27;7.45;;;;;;;;;;5041187;28;20434;-65
2023/07/11 09:12:09;;;;;;;9.30;4.97;;;;;;;;;;5036532;28;20025;-66
2023/07/11 09:14:37;;;;;;;12.15;6.75;;;;;;;;;;5040770;28;20040;-66
2023/07/11 09:17:11;;;;;;;9.18;6.43;;;;;;;;;;5054546;28;20028;-69
2023/07/11 09:19:38;;;;;;;11.68;5.53;;;;;;;;;;5054961;28;20382;-66
2023/07/11 09:22:13;;;;;;;10.40;6.05;;;;;;;;;;5055004;28;20486;-68
2023/07/11 09:25:00;;;;;;;10.30;5.72;;;;;;;;;;5055261;28;20029;-66
2023/07/11 09:27:28;;;;;;;13.43;8.02;;;;;;;;;;5054975;28;20390;-66
2023/07/11 09:29:55;;;;;;;11.57;5.78;;;;;;;;;;5055063;28;20064;-66
2023/07/11 09:32:22;;;;;;;12.98;6.25;;;;;;;;;;5055023;28;20070;-66
2023/07/11 09:34:50;;;;;;;18.50;11.13;;;;;;;;;;5055033;28;20025;-68
2023/07/11 09:37:36;;;;;;;16.17;9.00;;;;;;;;;;5055271;28;20044;-67
2023/07/11 09:40:03;;;;;;;13.75;9.00;;;;;;;;;;5048429;28;20036;-66
2023/07/11 09:42:50;;;;;;;35.55;18.90;;;;;;;;;;5038731;28;20366;-66
2023/07/11 09:45:18;;;;;;;20.40;10.65;;;;;;;;;;5034902;28;20092;-66
2023/07/11 09:47:49;;;;;;;23.33;10.50;;;;;;;;;;5034755;28;20108;-67
2023/07/11 09:50:19;;;;;;;29.80;15.82;;;;;;;;;;5034877;28;20017;-68
2023/07/11 09:52:47;;;;;;;39.70;24.58;;;;;;;;;;5034991;28;20041;-68
2023/07/11 09:55:36;;;;;;;21.65;10.93;;;;;;;;;;5034469;28;20022;-69
2023/07/11 09:58:03;;;;;;;16.88;8.23;;;;;;;;;;5034623;28;20026;-68
2023/07/11 10:00:30;;;;;;;1425.10;927.95;;;;;;;;;;5034641;28;20497;-70
2023/07/11 10:02:59;;;;;;;594.55;513.83;;;;;;;;;;5034218;28;20033;-67
2023/07/11 10:05:26;;;;;;;236.82;173.05;;;;;;;;;;5034362;28;20041;-68
2023/07/11 10:08:02;;;;;;;273.63;182.20;;;;;;;;;;5034573;28;20074;-69
2023/07/11 10:10:28;;;;;;;548.05;393.35;;;;;;;;;;5034493;28;20233;-70
2023/07/11 10:12:55;;;;;;;1094.75;745.17;;;;;;;;;;5044007;28;20025;-67
2023/07/11 10:15:27;;;;;;;570.20;415.58;;;;;;;;;;5035600;28;20037;-67
2023/07/11 10:17:56;;;;;;;509.35;326.73;;;;;;;;;;5034219;28;20055;-68
2023/07/11 10:20:24;;;;;;;91.20;46.88;;;;;;;;;;5034103;28;20065;-67
2023/07/11 10:22:52;;;;;;;119.65;56.35;;;;;;;;;;5033484;28;20026;-67
2023/07/11 10:25:21;;;;;;;91.60;37.03;;;;;;;;;;5034408;28;20040;-67
2023/07/11 10:28:05;;;;;;;84.97;42.85;;;;;;;;;;5034539;28;20026;-68
2023/07/11 10:30:34;;;;;;;45.63;22.58;;;;;;;;;;5034579;28;20026;-68
2023/07/11 10:33:00;;;;;;;40.05;20.45;;;;;;;;;;5034883;28;20048;-68
2023/07/11 10:35:27;;;;;;;37.38;20.85;;;;;;;;;;5034822;28;20025;-68
2023/07/11 10:37:56;;;;;;;21.38;11.60;;;;;;;;;;5034717;28;20021;-65
2023/07/11 10:40:28;;;;;;;18.23;9.55;;;;;;;;;;5034596;28;20286;-65
2023/07/11 10:42:54;;;;;;;;;;;;;;;;;;5034673;28;20060;-65
2023/07/11 10:45:23;;;;;;;17.27;10.10;;;;;;;;;;5038004;28;20263;-66
2023/07/11 10:47:55;;;;;;;23.15;11.82;;;;;;;;;;5039821;28;20112;-67
2023/07/11 10:50:33;;;;;;;26.17;12.98;;;;;;;;;;5034121;28;20112;-66
2023/07/11 10:53:02;;;;;;;35.58;18.40;;;;;;;;;;5033668;28;20113;-66
2023/07/11 10:55:34;;;;;;;33.53;18.27;;;;;;;;;;5033825;28;20064;-66
2023/07/11 10:58:02;;;;;;;39.78;19.17;;;;;;;;;;5033729;28;20023;-64
2023/07/11 11:00:48;;;;;;;46.25;23.45;;;;;;;;;;5033770;28;20434;-71
2023/07/11 11:03:34;;;;;;;45.88;22.63;;;;;;;;;;5033546;28;20032;-65
2023/07/11 11:06:01;;;;;;;46.88;25.65;;;;;;;;;;5033360;28;20067;-66
2023/07/11 11:08:28;;;;;;;57.70;27.65;;;;;;;;;;5033851;28;20498;-66
2023/07/11 11:11:02;;;;;;;53.95;28.52;;;;;;;;;;5033813;28;20039;-66
2023/07/11 11:13:30;;;;;;;55.78;29.00;;;;;;;;;;5033721;28;20030;-66
2023/07/11 11:16:17;;;;;;;49.25;23.58;;;;;;;;;;5038341;28;20455;-66
2023/07/11 11:18:52;;;;;;;40.10;20.08;;;;;;;;;;5030941;28;20021;-66
2023/07/11 11:21:35;;;;;;;35.78;19.40;;;;;;;;;;5033616;28;20395;-66
2023/07/11 11:24:03;;;;;;;40.53;20.95;;;;;;;;;;5032918;28;20034;-68
2023/07/11 11:26:30;;;;;;;53.50;27.17;;;;;;;;;;5032791;28;20056;-68
2023/07/11 11:29:05;;;;;;;39.35;21.70;;;;;;;;;;5032676;28;20030;-66
2023/07/11 11:31:33;;;;;;;51.30;26.02;;;;;;;;;;5032870;28;20022;-68
2023/07/11 11:34:19;;;;;;;53.65;30.35;;;;;;;;;;5036774;28;20493;-66
2023/07/11 11:36:48;;;;;;;47.40;29.00;;;;;;;;;;5054555;28;20098;-65
2023/07/11 11:39:15;;;;;;;48.65;28.60;;;;;;;;;;5054224;28;20024;-66
2023/07/11 11:41:44;;;;;;;49.10;27.42;;;;;;;;;;5055064;28;20024;-66
2023/07/11 11:44:16;;;;;;;45.67;25.45;;;;;;;;;;5055381;28;20108;-66
2023/07/11 11:46:44;;;;;;;52.60;30.48;;;;;;;;;;5055871;28;20049;-63
2023/07/11 11:49:11;;;;;;;56.72;28.08;;;;;;;;;;5055433;28;20021;-67
2023/07/11 11:51:38;;;;;;;67.57;34.67;;;;;;;;;;5055918;28;20024;-65
2023/07/11 11:54:15;;;;;;;59.65;30.90;;;;;;;;;;5049751;28;20412;-66
2023/07/11 11:56:44;;;;;;;65.45;33.15;;;;;;;;;;5051499;28;20040;-70
2023/07/11 11:59:17;;;;;;;50.97;27.55;;;;;;;;;;5036482;28;20363;-69
2023/07/11 12:01:54;;;;;;;50.60;28.13;;;;;;;;;;5036624;28;20044;-65
2023/07/11 12:04:40;;;;;;;47.90;28.02;;;;;;;;;;5036564;28;20017;-66
2023/07/11 12:07:07;;;;;;;56.13;29.02;;;;;;;;;;5044529;28;20029;-64
2023/07/11 12:09:35;;;;;;;54.97;31.15;;;;;;;;;;5056326;28;20021;-65
2023/07/11 12:12:06;;;;;;;57.53;30.25;;;;;;;;;;5056188;28;20025;-66
2023/07/11 12:14:52;;;;;;;53.83;27.15;;;;;;;;;;5049807;28;20025;-65
2023/07/11 12:17:30;;;;;;;43.70;25.60;;;;;;;;;;5036764;28;20038;-66
2023/07/11 12:19:58;;;;;;;45.28;25.77;;;;;;;;;;5036156;28;20025;-66
2023/07/11 12:22:26;;;;;;;49.80;25.58;;;;;;;;;;5035890;28;20026;-63
2023/07/11 12:25:03;;;;;;;50.55;26.10;;;;;;;;;;5036153;28;20072;-65
2023/07/11 12:27:29;;;;;;;47.03;27.10;;;;;;;;;;5043712;28;20470;-67
2023/07/11 12:29:56;;;;;;;50.38;28.85;;;;;;;;;;5054783;28;20040;-66
2023/07/11 12:32:31;;;;;;;61.45;29.40;;;;;;;;;;5054704;28;20021;-65
2023/07/11 12:35:09;;;;;;;50.10;28.85;;;;;;;;;;5052308;28;20021;-65
2023/07/11 12:37:48;;;;;;;51.90;26.85;;;;;;;;;;5054140;28;20029;-66
2023/07/11 12:40:15;;;;;;;40.53;22.15;;;;;;;;;;5053920;28;20056;-65
2023/07/11 12:42:54;;;;;;;43.42;23.00;;;;;;;;;;5052297;28;20048;-66
2023/07/11 12:45:22;;;;;;;44.80;23.50;;;;;;;;;;5051885;28;20037;-68
2023/07/11 12:47:50;;;;;;;43.60;24.80;;;;;;;;;;5053930;28;20017;-69
2023/07/11 12:50:20;;;;;;;40.45;25.52;;;;;;;;;;5054448;28;20025;-67
2023/07/11 12:52:56;;;;;;;45.58;25.30;;;;;;;;;;5054738;28;20094;-68
2023/07/11 12:55:23;;;;;;;46.22;26.15;;;;;;;;;;5054534;28;20440;-66
2023/07/11 12:57:49;;;;;;;45.28;25.02;;;;;;;;;;5054841;28;20025;-67
2023/07/11 13:00:20;;;;;;;34.08;20.52;;;;;;;;;;5054814;28;20032;-67
2023/07/11 13:02:47;;;;;;;38.53;21.00;;;;;;;;;;5052561;28;20029;-67
2023/07/11 13:05:13;;;;;;;36.53;19.30;;;;;;;;;;5055321;28;20466;-67
2023/07/11 13:07:41;;;;;;;31.98;17.58;;;;;;;;;;5053247;28;20029;-66
2023/07/11 13:10:28;;;;;;;26.52;16.25;;;;;;;;;;5054770;28;20028;-66
2023/07/11 13:12:55;;;;;;;31.40;14.77;;;;;;;;;;5055381;28;20025;-65
2023/07/11 13:15:23;;;;;;;27.17;14.05;;;;;;;;;;5054371;28;20055;-68
2023/07/11 13:17:52;;;;;;;31.92;13.95;;;;;;;;;;5055285;28;20060;-67
2023/07/11 13:20:22;;;;;;;23.65;13.32;;;;;;;;;;5055989;28;20131;-64
2023/07/11 13:22:49;;;;;;;25.80;13.77;;;;;;;;;;5055573;28;20103;-66
2023/07/11 13:25:17;;;;;;;28.98;14.18;;;;;;;;;;5054532;28;20261;-67
2023/07/11 13:27:47;;;;;;;25.65;14.40;;;;;;;;;;5054460;28;20099;-67
2023/07/11 13:30:25;;;;;;;25.58;14.55;;;;;;;;;;5053956;28;20075;-65
2023/07/11 13:32:54;;;;;;;25.80;13.93;;;;;;;;;;5054650;28;20524;-65
2023/07/11 13:35:21;;;;;;;27.98;15.18;;;;;;;;;;5054455;28;20474;-64
2023/07/11 13:37:48;;;;;;;29.13;14.45;;;;;;;;;;5053340;28;20032;-66
2023/07/11 13:40:35;;;;;;;29.10;15.05;;;;;;;;;;5051651;28;20067;-65
2023/07/11 13:43:15;;;;;;;24.92;14.95;;;;;;;;;;5052885;28;20033;-65
2023/07/11 13:45:41;;;;;;;22.85;13.40;;;;;;;;;;5052481;28;20021;-66
2023/07/11 13:48:14;;;;;;;28.63;13.93;;;;;;;;;;5053104;28;20021;-65
2023/07/11 13:50:40;;;;;;;;;;;;;;;;;;5054977;28;20036;-65
2023/07/11 13:53:13;;;;;;;31.27;13.50;;;;;;;;;;5053482;28;19916;-66
2023/07/11 13:55:44;;;;;;;23.60;12.40;;;;;;;;;;5053136;28;20489;-64
2023/07/11 13:58:10;;;;;;;24.27;11.02;;;;;;;;;;5051800;28;20021;-68
2023/07/11 14:00:38;;;;;;;24.70;11.63;;;;;;;;;;5053688;28;20025;-67
2023/07/11 14:03:09;;;;;;;79.53;58.28;;;;;;;;;;5053640;28;20411;-67
2023/07/11 14:05:35;;;;;;;68.65;50.03;;;;;;;;;;5054143;28;20021;-68
2023/07/11 14:08:02;;;;;;;57.40;42.42;;;;;;;;;;5053749;28;20016;-66
2023/07/11 14:10:30;;;;;;;70.65;49.63;;;;;;;;;;5053047;28;20032;-66
2023/07/11 14:12:57;;;;;;;107.63;77.50;;;;;;;;;;5052449;28;20033;-67
2023/07/11 14:15:25;;;;;;;42.08;28.45;;;;;;;;;;5053652;28;20096;-67
2023/07/11 14:17:52;;;;;;;20.55;12.45;;;;;;;;;;5052148;28;20021;-68
2023/07/11 14:20:21;;;;;;;29.38;16.40;;;;;;;;;;5052029;28;20086;-68
2023/07/11 14:22:47;;;;;;;52.50;41.08;;;;;;;;;;5053339;28;20028;-68
2023/07/11 14:25:15;;;;;;;28.33;15.90;;;;;;;;;;5053563;28;20041;-66
2023/07/11 14:27:42;;;;;;;20.50;12.00;;;;;;;;;;5051361;28;20020;-67